sensor_id;sensor_type;location;lat;lon;timestamp;P1;durP1;ratioP1;P2;durP2;ratioP2
41799;SDS011;27468;47.460;19.034;2022-08-19T00:01:51;10.77;;;9.10;;
41799;SDS011;27468;47.460;19.034;2022-08-19T00:04:19;10.50;;;9.48;;
41799;SDS011;27468;47.460;19.034;2022-08-19T00:06:47;11.52;;;9.55;;
41799;SDS011;27468;47.460;19.034;2022-08-19T00:09:14;10.90;;;9.25;;
41799;SDS011;27468;47.460;19.034;2022-08-19T00:11:42;11.27;;;9.60;;
41799;SDS011;27468;47.460;19.034;2022-08-19T00:14:09;12.63;;;9.52;;
41799;SDS011;27468;47.460;19.034;2022-08-19T00:16:39;11.80;;;9.25;;
41799;SDS011;27468;47.460;19.034;2022-08-19T00:19:06;11.45;;;9.20;;
41799;SDS011;27468;47.460;19.034;2022-08-19T00:21:32;10.13;;;9.05;;
41799;SDS011;27468;47.460;19.034;2022-08-19T00:24:03;13.00;;;9.30;;
41799;SDS011;27468;47.460;19.034;2022-08-19T00:26:29;11.15;;;9.27;;
41799;SDS011;27468;47.460;19.034;2022-08-19T00:28:54;10.95;;;9.48;;
41799;SDS011;27468;47.460;19.034;2022-08-19T00:31:20;11.82;;;9.02;;
41799;SDS011;27468;47.460;19.034;2022-08-19T00:33:46;10.48;;;9.43;;
41799;SDS011;27468;47.460;19.034;2022-08-19T00:36:15;11.23;;;9.20;;
41799;SDS011;27468;47.460;19.034;2022-08-19T00:38:42;12.23;;;8.95;;
41799;SDS011;27468;47.460;19.034;2022-08-19T00:41:08;10.70;;;9.68;;
41799;SDS011;27468;47.460;19.034;2022-08-19T00:43:39;11.18;;;8.82;;
41799;SDS011;27468;47.460;19.034;2022-08-19T00:46:07;10.68;;;9.48;;
41799;SDS011;27468;47.460;19.034;2022-08-19T00:48:34;11.02;;;8.80;;
41799;SDS011;27468;47.460;19.034;2022-08-19T00:51:01;10.43;;;9.25;;
41799;SDS011;27468;47.460;19.034;2022-08-19T00:53:29;11.35;;;8.90;;
41799;SDS011;27468;47.460;19.034;2022-08-19T00:55:58;12.27;;;9.27;;
41799;SDS011;27468;47.460;19.034;2022-08-19T00:58:27;9.95;;;9.00;;
41799;SDS011;27468;47.460;19.034;2022-08-19T01:00:57;10.85;;;9.63;;
41799;SDS011;27468;47.460;19.034;2022-08-19T01:03:22;11.57;;;9.35;;
41799;SDS011;27468;47.460;19.034;2022-08-19T01:05:48;11.30;;;9.27;;
41799;SDS011;27468;47.460;19.034;2022-08-19T01:08:17;12.40;;;9.23;;
41799;SDS011;27468;47.460;19.034;2022-08-19T01:10:47;10.55;;;9.13;;
41799;SDS011;27468;47.460;19.034;2022-08-19T01:15:45;10.82;;;9.52;;
41799;SDS011;27468;47.460;19.034;2022-08-19T01:18:14;12.32;;;9.85;;
41799;SDS011;27468;47.460;19.034;2022-08-19T01:20:41;11.80;;;9.10;;
41799;SDS011;27468;47.460;19.034;2022-08-19T01:23:07;10.48;;;9.38;;
41799;SDS011;27468;47.460;19.034;2022-08-19T01:25:35;10.55;;;9.45;;
41799;SDS011;27468;47.460;19.034;2022-08-19T01:28:05;10.93;;;9.23;;
41799;SDS011;27468;47.460;19.034;2022-08-19T01:30:32;10.75;;;9.57;;
41799;SDS011;27468;47.460;19.034;2022-08-19T01:32:59;12.32;;;9.65;;
41799;SDS011;27468;47.460;19.034;2022-08-19T01:35:26;10.35;;;9.30;;
41799;SDS011;27468;47.460;19.034;2022-08-19T01:40:25;12.27;;;9.65;;
41799;SDS011;27468;47.460;19.034;2022-08-19T01:42:54;10.23;;;8.88;;
41799;SDS011;27468;47.460;19.034;2022-08-19T01:45:21;10.43;;;9.43;;
41799;SDS011;27468;47.460;19.034;2022-08-19T01:47:48;10.60;;;9.50;;
41799;SDS011;27468;47.460;19.034;2022-08-19T01:50:13;11.25;;;10.00;;
41799;SDS011;27468;47.460;19.034;2022-08-19T01:52:40;12.02;;;10.18;;
41799;SDS011;27468;47.460;19.034;2022-08-19T01:55:08;10.80;;;9.70;;
41799;SDS011;27468;47.460;19.034;2022-08-19T01:57:36;11.43;;;9.63;;
41799;SDS011;27468;47.460;19.034;2022-08-19T02:00:05;11.35;;;9.05;;
41799;SDS011;27468;47.460;19.034;2022-08-19T02:02:33;10.50;;;9.35;;
41799;SDS011;27468;47.460;19.034;2022-08-19T02:04:58;10.82;;;9.35;;
41799;SDS011;27468;47.460;19.034;2022-08-19T02:07:24;11.88;;;9.82;;
41799;SDS011;27468;47.460;19.034;2022-08-19T02:09:49;11.48;;;9.60;;
41799;SDS011;27468;47.460;19.034;2022-08-19T02:12:15;11.05;;;9.07;;
41799;SDS011;27468;47.460;19.034;2022-08-19T02:14:41;10.60;;;9.50;;
41799;SDS011;27468;47.460;19.034;2022-08-19T02:17:07;12.80;;;10.35;;
41799;SDS011;27468;47.460;19.034;2022-08-19T02:19:32;11.75;;;9.85;;
41799;SDS011;27468;47.460;19.034;2022-08-19T02:21:58;10.13;;;9.20;;
41799;SDS011;27468;47.460;19.034;2022-08-19T02:24:24;10.90;;;9.18;;
41799;SDS011;27468;47.460;19.034;2022-08-19T02:26:50;10.60;;;9.40;;
41799;SDS011;27468;47.460;19.034;2022-08-19T02:29:16;11.27;;;9.38;;
41799;SDS011;27468;47.460;19.034;2022-08-19T02:31:41;11.50;;;9.63;;
41799;SDS011;27468;47.460;19.034;2022-08-19T02:34:07;10.70;;;9.32;;
41799;SDS011;27468;47.460;19.034;2022-08-19T02:36:33;11.07;;;9.68;;
41799;SDS011;27468;47.460;19.034;2022-08-19T02:38:59;10.77;;;9.68;;
41799;SDS011;27468;47.460;19.034;2022-08-19T02:41:26;11.77;;;10.20;;
41799;SDS011;27468;47.460;19.034;2022-08-19T02:43:54;12.23;;;9.85;;
41799;SDS011;27468;47.460;19.034;2022-08-19T02:46:23;11.07;;;9.45;;
41799;SDS011;27468;47.460;19.034;2022-08-19T02:48:56;10.63;;;9.43;;
41799;SDS011;27468;47.460;19.034;2022-08-19T02:51:25;10.77;;;9.68;;
41799;SDS011;27468;47.460;19.034;2022-08-19T02:53:53;10.75;;;9.65;;
41799;SDS011;27468;47.460;19.034;2022-08-19T02:56:19;10.80;;;9.70;;
41799;SDS011;27468;47.460;19.034;2022-08-19T02:58:45;12.40;;;9.98;;
41799;SDS011;27468;47.460;19.034;2022-08-19T03:01:19;10.77;;;9.25;;
41799;SDS011;27468;47.460;19.034;2022-08-19T03:03:47;11.10;;;10.00;;
41799;SDS011;27468;47.460;19.034;2022-08-19T03:06:13;12.88;;;9.70;;
41799;SDS011;27468;47.460;19.034;2022-08-19T03:08:41;10.75;;;9.65;;
41799;SDS011;27468;47.460;19.034;2022-08-19T03:13:43;13.18;;;10.05;;
41799;SDS011;27468;47.460;19.034;2022-08-19T03:16:10;12.63;;;10.18;;
41799;SDS011;27468;47.460;19.034;2022-08-19T03:18:37;12.10;;;10.35;;
41799;SDS011;27468;47.460;19.034;2022-08-19T03:21:03;10.60;;;9.60;;
41799;SDS011;27468;47.460;19.034;2022-08-19T03:23:29;11.27;;;9.60;;
41799;SDS011;27468;47.460;19.034;2022-08-19T03:25:54;11.18;;;10.00;;
41799;SDS011;27468;47.460;19.034;2022-08-19T03:28:20;12.15;;;10.85;;
41799;SDS011;27468;47.460;19.034;2022-08-19T03:30:59;13.85;;;10.38;;
41799;SDS011;27468;47.460;19.034;2022-08-19T03:33:30;10.93;;;9.82;;
41799;SDS011;27468;47.460;19.034;2022-08-19T03:36:04;11.43;;;10.15;;
41799;SDS011;27468;47.460;19.034;2022-08-19T03:38:35;11.32;;;10.15;;
41799;SDS011;27468;47.460;19.034;2022-08-19T03:41:04;12.93;;;10.75;;
41799;SDS011;27468;47.460;19.034;2022-08-19T03:43:31;11.50;;;10.15;;
41799;SDS011;27468;47.460;19.034;2022-08-19T03:46:02;10.70;;;9.65;;
41799;SDS011;27468;47.460;19.034;2022-08-19T03:48:33;11.70;;;10.50;;
41799;SDS011;27468;47.460;19.034;2022-08-19T03:50:59;11.68;;;10.48;;
41799;SDS011;27468;47.460;19.034;2022-08-19T03:53:29;12.07;;;10.23;;
41799;SDS011;27468;47.460;19.034;2022-08-19T03:55:56;12.73;;;10.60;;
41799;SDS011;27468;47.460;19.034;2022-08-19T03:58:24;11.38;;;10.15;;
41799;SDS011;27468;47.460;19.034;2022-08-19T04:00:53;11.30;;;10.15;;
41799;SDS011;27468;47.460;19.034;2022-08-19T04:03:22;11.25;;;9.93;;
41799;SDS011;27468;47.460;19.034;2022-08-19T04:05:49;11.23;;;10.07;;
41799;SDS011;27468;47.460;19.034;2022-08-19T04:08:15;12.68;;;10.50;;
41799;SDS011;27468;47.460;19.034;2022-08-19T04:10:45;12.75;;;10.10;;
41799;SDS011;27468;47.460;19.034;2022-08-19T04:13:12;11.65;;;10.18;;
41799;SDS011;27468;47.460;19.034;2022-08-19T04:15:38;11.85;;;10.50;;
41799;SDS011;27468;47.460;19.034;2022-08-19T04:18:06;11.45;;;10.35;;
41799;SDS011;27468;47.460;19.034;2022-08-19T04:20:46;11.45;;;10.00;;
41799;SDS011;27468;47.460;19.034;2022-08-19T04:23:13;14.13;;;10.43;;
41799;SDS011;27468;47.460;19.034;2022-08-19T04:25:40;13.23;;;10.38;;
41799;SDS011;27468;47.460;19.034;2022-08-19T04:28:08;11.75;;;10.65;;
41799;SDS011;27468;47.460;19.034;2022-08-19T04:30:42;10.82;;;9.82;;
41799;SDS011;27468;47.460;19.034;2022-08-19T04:33:10;10.68;;;9.50;;
41799;SDS011;27468;47.460;19.034;2022-08-19T04:35:39;11.48;;;10.13;;
41799;SDS011;27468;47.460;19.034;2022-08-19T04:38:07;11.98;;;9.23;;
41799;SDS011;27468;47.460;19.034;2022-08-19T04:40:33;11.90;;;9.80;;
41799;SDS011;27468;47.460;19.034;2022-08-19T04:43:17;11.38;;;10.18;;
41799;SDS011;27468;47.460;19.034;2022-08-19T04:45:43;11.23;;;9.80;;
41799;SDS011;27468;47.460;19.034;2022-08-19T04:48:09;10.10;;;9.10;;
41799;SDS011;27468;47.460;19.034;2022-08-19T04:50:36;11.35;;;9.50;;
41799;SDS011;27468;47.460;19.034;2022-08-19T04:53:01;10.55;;;9.50;;
41799;SDS011;27468;47.460;19.034;2022-08-19T04:55:27;11.30;;;9.60;;
41799;SDS011;27468;47.460;19.034;2022-08-19T04:57:53;11.35;;;10.15;;
41799;SDS011;27468;47.460;19.034;2022-08-19T05:00:21;10.48;;;9.38;;
41799;SDS011;27468;47.460;19.034;2022-08-19T05:02:47;12.07;;;10.13;;
41799;SDS011;27468;47.460;19.034;2022-08-19T05:05:14;10.57;;;9.48;;
41799;SDS011;27468;47.460;19.034;2022-08-19T05:07:40;13.07;;;10.52;;
41799;SDS011;27468;47.460;19.034;2022-08-19T05:10:06;10.43;;;9.00;;
41799;SDS011;27468;47.460;19.034;2022-08-19T05:12:32;10.77;;;9.18;;
41799;SDS011;27468;47.460;19.034;2022-08-19T05:14:58;10.38;;;8.93;;
41799;SDS011;27468;47.460;19.034;2022-08-19T05:17:25;11.30;;;9.25;;
41799;SDS011;27468;47.460;19.034;2022-08-19T05:19:52;12.68;;;9.20;;
41799;SDS011;27468;47.460;19.034;2022-08-19T05:22:36;11.00;;;9.07;;
41799;SDS011;27468;47.460;19.034;2022-08-19T05:25:06;11.27;;;9.50;;
41799;SDS011;27468;47.460;19.034;2022-08-19T05:27:35;11.13;;;8.98;;
41799;SDS011;27468;47.460;19.034;2022-08-19T05:30:01;11.23;;;9.13;;
41799;SDS011;27468;47.460;19.034;2022-08-19T05:32:26;10.63;;;8.90;;
41799;SDS011;27468;47.460;19.034;2022-08-19T05:34:52;12.40;;;8.98;;
41799;SDS011;27468;47.460;19.034;2022-08-19T05:37:18;17.02;;;9.90;;
41799;SDS011;27468;47.460;19.034;2022-08-19T05:39:44;10.23;;;9.20;;
41799;SDS011;27468;47.460;19.034;2022-08-19T05:42:10;10.95;;;9.25;;
41799;SDS011;27468;47.460;19.034;2022-08-19T05:44:37;10.18;;;9.07;;
41799;SDS011;27468;47.460;19.034;2022-08-19T05:47:05;12.27;;;9.52;;
41799;SDS011;27468;47.460;19.034;2022-08-19T05:49:33;11.13;;;8.90;;
41799;SDS011;27468;47.460;19.034;2022-08-19T05:52:01;11.90;;;9.52;;
41799;SDS011;27468;47.460;19.034;2022-08-19T05:54:31;11.55;;;8.73;;
41799;SDS011;27468;47.460;19.034;2022-08-19T05:56:56;12.77;;;8.88;;
41799;SDS011;27468;47.460;19.034;2022-08-19T05:59:22;12.57;;;8.40;;
41799;SDS011;27468;47.460;19.034;2022-08-19T06:01:49;9.70;;;8.55;;
41799;SDS011;27468;47.460;19.034;2022-08-19T06:04:16;11.00;;;8.20;;
41799;SDS011;27468;47.460;19.034;2022-08-19T06:06:44;9.95;;;8.40;;
41799;SDS011;27468;47.460;19.034;2022-08-19T06:09:14;10.98;;;8.60;;
41799;SDS011;27468;47.460;19.034;2022-08-19T06:11:50;10.98;;;8.73;;
41799;SDS011;27468;47.460;19.034;2022-08-19T06:14:19;10.55;;;8.73;;
41799;SDS011;27468;47.460;19.034;2022-08-19T06:16:49;10.23;;;8.90;;
41799;SDS011;27468;47.460;19.034;2022-08-19T06:19:18;11.10;;;8.50;;
41799;SDS011;27468;47.460;19.034;2022-08-19T06:21:46;12.77;;;8.77;;
41799;SDS011;27468;47.460;19.034;2022-08-19T06:24:13;11.93;;;8.88;;
41799;SDS011;27468;47.460;19.034;2022-08-19T06:26:41;10.48;;;8.60;;
41799;SDS011;27468;47.460;19.034;2022-08-19T06:29:10;9.30;;;8.18;;
41799;SDS011;27468;47.460;19.034;2022-08-19T06:31:40;10.75;;;8.18;;
41799;SDS011;27468;47.460;19.034;2022-08-19T06:34:10;9.20;;;8.25;;
41799;SDS011;27468;47.460;19.034;2022-08-19T06:36:37;11.13;;;8.13;;
41799;SDS011;27468;47.460;19.034;2022-08-19T06:39:11;9.32;;;7.80;;
41799;SDS011;27468;47.460;19.034;2022-08-19T06:41:42;9.13;;;7.88;;
41799;SDS011;27468;47.460;19.034;2022-08-19T06:44:10;8.95;;;7.88;;
41799;SDS011;27468;47.460;19.034;2022-08-19T06:46:36;9.77;;;7.50;;
41799;SDS011;27468;47.460;19.034;2022-08-19T06:49:03;11.63;;;8.23;;
41799;SDS011;27468;47.460;19.034;2022-08-19T06:51:29;9.00;;;7.43;;
41799;SDS011;27468;47.460;19.034;2022-08-19T06:53:57;12.77;;;7.70;;
41799;SDS011;27468;47.460;19.034;2022-08-19T06:56:24;8.90;;;7.57;;
41799;SDS011;27468;47.460;19.034;2022-08-19T06:58:58;8.02;;;7.22;;
41799;SDS011;27468;47.460;19.034;2022-08-19T07:01:39;8.18;;;7.35;;
41799;SDS011;27468;47.460;19.034;2022-08-19T07:04:09;8.48;;;7.18;;
41799;SDS011;27468;47.460;19.034;2022-08-19T07:06:35;8.52;;;7.50;;
41799;SDS011;27468;47.460;19.034;2022-08-19T07:09:03;10.57;;;7.35;;
41799;SDS011;27468;47.460;19.034;2022-08-19T07:11:30;8.70;;;7.88;;
41799;SDS011;27468;47.460;19.034;2022-08-19T07:13:56;10.05;;;7.60;;
41799;SDS011;27468;47.460;19.034;2022-08-19T07:16:21;9.30;;;7.13;;
41799;SDS011;27468;47.460;19.034;2022-08-19T07:18:47;10.60;;;7.60;;
41799;SDS011;27468;47.460;19.034;2022-08-19T07:21:21;7.88;;;7.07;;
41799;SDS011;27468;47.460;19.034;2022-08-19T07:23:49;8.80;;;6.72;;
41799;SDS011;27468;47.460;19.034;2022-08-19T07:28:42;7.97;;;7.10;;
41799;SDS011;27468;47.460;19.034;2022-08-19T07:31:11;8.43;;;6.97;;
41799;SDS011;27468;47.460;19.034;2022-08-19T07:33:39;8.05;;;7.07;;
41799;SDS011;27468;47.460;19.034;2022-08-19T07:36:06;9.07;;;7.38;;
41799;SDS011;27468;47.460;19.034;2022-08-19T07:38:36;10.02;;;7.00;;
41799;SDS011;27468;47.460;19.034;2022-08-19T07:41:03;7.70;;;6.70;;
41799;SDS011;27468;47.460;19.034;2022-08-19T07:43:29;8.68;;;6.95;;
41799;SDS011;27468;47.460;19.034;2022-08-19T07:45:54;9.38;;;7.25;;
41799;SDS011;27468;47.460;19.034;2022-08-19T07:48:24;9.73;;;6.88;;
41799;SDS011;27468;47.460;19.034;2022-08-19T07:50:54;8.57;;;7.15;;
41799;SDS011;27468;47.460;19.034;2022-08-19T07:53:22;9.38;;;6.97;;
41799;SDS011;27468;47.460;19.034;2022-08-19T07:55:49;8.73;;;7.30;;
41799;SDS011;27468;47.460;19.034;2022-08-19T07:58:16;8.43;;;7.30;;
41799;SDS011;27468;47.460;19.034;2022-08-19T08:00:44;9.25;;;6.97;;
41799;SDS011;27468;47.460;19.034;2022-08-19T08:03:11;7.85;;;6.72;;
41799;SDS011;27468;47.460;19.034;2022-08-19T08:05:37;9.32;;;7.30;;
41799;SDS011;27468;47.460;19.034;2022-08-19T08:08:21;10.32;;;6.93;;
41799;SDS011;27468;47.460;19.034;2022-08-19T08:11:07;9.88;;;7.05;;
41799;SDS011;27468;47.460;19.034;2022-08-19T08:13:33;8.43;;;6.72;;
41799;SDS011;27468;47.460;19.034;2022-08-19T08:16:03;9.27;;;6.85;;
41799;SDS011;27468;47.460;19.034;2022-08-19T08:18:28;8.52;;;7.30;;
41799;SDS011;27468;47.460;19.034;2022-08-19T08:20:57;10.15;;;7.00;;
41799;SDS011;27468;47.460;19.034;2022-08-19T08:23:23;8.52;;;7.30;;
41799;SDS011;27468;47.460;19.034;2022-08-19T08:25:51;7.60;;;6.63;;
41799;SDS011;27468;47.460;19.034;2022-08-19T08:28:19;9.23;;;6.45;;
41799;SDS011;27468;47.460;19.034;2022-08-19T08:30:46;7.82;;;6.40;;
41799;SDS011;27468;47.460;19.034;2022-08-19T08:33:13;8.77;;;6.95;;
41799;SDS011;27468;47.460;19.034;2022-08-19T08:35:42;8.43;;;6.55;;
41799;SDS011;27468;47.460;19.034;2022-08-19T08:38:08;7.10;;;6.40;;
41799;SDS011;27468;47.460;19.034;2022-08-19T08:40:53;7.97;;;6.60;;
41799;SDS011;27468;47.460;19.034;2022-08-19T08:43:28;7.47;;;6.40;;
41799;SDS011;27468;47.460;19.034;2022-08-19T08:48:41;8.70;;;7.00;;
41799;SDS011;27468;47.460;19.034;2022-08-19T08:51:15;7.45;;;6.75;;
41799;SDS011;27468;47.460;19.034;2022-08-19T08:53:46;7.55;;;6.43;;
41799;SDS011;27468;47.460;19.034;2022-08-19T08:56:14;9.32;;;6.78;;
41799;SDS011;27468;47.460;19.034;2022-08-19T08:58:58;7.47;;;6.38;;
41799;SDS011;27468;47.460;19.034;2022-08-19T09:01:28;8.13;;;6.50;;
41799;SDS011;27468;47.460;19.034;2022-08-19T09:03:54;8.45;;;6.60;;
41799;SDS011;27468;47.460;19.034;2022-08-19T09:14:43;11.00;;;7.05;;
41799;SDS011;27468;47.460;19.034;2022-08-19T09:17:22;8.23;;;6.60;;
41799;SDS011;27468;47.460;19.034;2022-08-19T09:19:54;7.90;;;6.65;;
41799;SDS011;27468;47.460;19.034;2022-08-19T09:22:33;8.40;;;6.57;;
41799;SDS011;27468;47.460;19.034;2022-08-19T09:25:00;10.10;;;6.55;;
41799;SDS011;27468;47.460;19.034;2022-08-19T09:27:26;8.32;;;7.15;;
41799;SDS011;27468;47.460;19.034;2022-08-19T09:29:53;8.43;;;7.18;;
41799;SDS011;27468;47.460;19.034;2022-08-19T09:32:19;9.75;;;7.25;;
41799;SDS011;27468;47.460;19.034;2022-08-19T09:34:45;9.32;;;6.35;;
41799;SDS011;27468;47.460;19.034;2022-08-19T09:37:11;7.85;;;6.43;;
41799;SDS011;27468;47.460;19.034;2022-08-19T09:39:37;9.32;;;6.47;;
41799;SDS011;27468;47.460;19.034;2022-08-19T09:42:05;9.05;;;7.15;;
41799;SDS011;27468;47.460;19.034;2022-08-19T09:44:36;8.30;;;6.55;;
41799;SDS011;27468;47.460;19.034;2022-08-19T09:47:02;7.72;;;6.93;;
41799;SDS011;27468;47.460;19.034;2022-08-19T09:49:28;7.30;;;6.53;;
41799;SDS011;27468;47.460;19.034;2022-08-19T09:51:54;9.05;;;6.40;;
41799;SDS011;27468;47.460;19.034;2022-08-19T09:54:21;8.30;;;6.43;;
41799;SDS011;27468;47.460;19.034;2022-08-19T09:56:47;7.60;;;6.80;;
41799;SDS011;27468;47.460;19.034;2022-08-19T09:59:13;7.50;;;6.43;;
41799;SDS011;27468;47.460;19.034;2022-08-19T10:01:39;8.63;;;6.70;;
41799;SDS011;27468;47.460;19.034;2022-08-19T10:04:04;7.85;;;7.10;;
41799;SDS011;27468;47.460;19.034;2022-08-19T10:09:03;9.00;;;6.55;;
41799;SDS011;27468;47.460;19.034;2022-08-19T10:11:31;7.10;;;6.40;;
41799;SDS011;27468;47.460;19.034;2022-08-19T10:13:57;9.43;;;6.88;;
41799;SDS011;27468;47.460;19.034;2022-08-19T10:16:23;8.25;;;7.13;;
41799;SDS011;27468;47.460;19.034;2022-08-19T10:18:50;8.23;;;7.25;;
41799;SDS011;27468;47.460;19.034;2022-08-19T10:21:17;6.82;;;6.15;;
41799;SDS011;27468;47.460;19.034;2022-08-19T10:23:48;6.80;;;6.20;;
41799;SDS011;27468;47.460;19.034;2022-08-19T10:26:17;6.82;;;6.22;;
41799;SDS011;27468;47.460;19.034;2022-08-19T10:28:45;8.57;;;6.60;;
41799;SDS011;27468;47.460;19.034;2022-08-19T10:31:11;7.88;;;6.45;;
41799;SDS011;27468;47.460;19.034;2022-08-19T10:33:39;6.75;;;5.95;;
41799;SDS011;27468;47.460;19.034;2022-08-19T10:36:11;8.20;;;6.60;;
41799;SDS011;27468;47.460;19.034;2022-08-19T10:38:42;7.82;;;6.20;;
41799;SDS011;27468;47.460;19.034;2022-08-19T10:41:23;6.50;;;5.90;;
41799;SDS011;27468;47.460;19.034;2022-08-19T10:43:51;6.72;;;6.03;;
41799;SDS011;27468;47.460;19.034;2022-08-19T10:46:20;7.03;;;6.22;;
41799;SDS011;27468;47.460;19.034;2022-08-19T10:48:47;7.15;;;6.15;;
41799;SDS011;27468;47.460;19.034;2022-08-19T10:51:13;7.03;;;6.22;;
41799;SDS011;27468;47.460;19.034;2022-08-19T10:53:57;6.38;;;5.78;;
41799;SDS011;27468;47.460;19.034;2022-08-19T10:56:24;6.55;;;5.85;;
41799;SDS011;27468;47.460;19.034;2022-08-19T10:59:08;9.02;;;5.88;;
41799;SDS011;27468;47.460;19.034;2022-08-19T11:01:34;9.45;;;6.38;;
41799;SDS011;27468;47.460;19.034;2022-08-19T11:04:01;7.40;;;6.55;;
41799;SDS011;27468;47.460;19.034;2022-08-19T11:06:28;7.90;;;6.90;;
41799;SDS011;27468;47.460;19.034;2022-08-19T11:08:55;7.57;;;6.78;;
41799;SDS011;27468;47.460;19.034;2022-08-19T11:11:21;9.32;;;7.65;;
41799;SDS011;27468;47.460;19.034;2022-08-19T11:13:47;8.27;;;7.40;;
41799;SDS011;27468;47.460;19.034;2022-08-19T11:16:22;7.75;;;7.07;;
41799;SDS011;27468;47.460;19.034;2022-08-19T11:18:53;8.93;;;6.70;;
41799;SDS011;27468;47.460;19.034;2022-08-19T11:23:58;7.55;;;6.82;;
41799;SDS011;27468;47.460;19.034;2022-08-19T11:26:26;8.15;;;7.15;;
41799;SDS011;27468;47.460;19.034;2022-08-19T11:28:52;10.48;;;7.60;;
41799;SDS011;27468;47.460;19.034;2022-08-19T11:31:21;8.98;;;7.63;;
41799;SDS011;27468;47.460;19.034;2022-08-19T11:33:48;9.35;;;7.53;;
41799;SDS011;27468;47.460;19.034;2022-08-19T11:36:17;8.70;;;7.35;;
41799;SDS011;27468;47.460;19.034;2022-08-19T11:38:44;7.80;;;6.97;;
41799;SDS011;27468;47.460;19.034;2022-08-19T11:41:13;8.18;;;6.70;;
41799;SDS011;27468;47.460;19.034;2022-08-19T11:43:40;7.63;;;5.65;;
41799;SDS011;27468;47.460;19.034;2022-08-19T11:46:06;6.40;;;5.82;;
41799;SDS011;27468;47.460;19.034;2022-08-19T11:48:33;8.15;;;5.90;;
41799;SDS011;27468;47.460;19.034;2022-08-19T11:51:02;6.53;;;5.93;;
41799;SDS011;27468;47.460;19.034;2022-08-19T11:53:33;8.10;;;7.40;;
41799;SDS011;27468;47.460;19.034;2022-08-19T11:55:59;8.82;;;7.82;;
41799;SDS011;27468;47.460;19.034;2022-08-19T11:58:24;8.00;;;7.20;;
41799;SDS011;27468;47.460;19.034;2022-08-19T12:00:50;8.20;;;6.90;;
41799;SDS011;27468;47.460;19.034;2022-08-19T12:03:16;8.57;;;6.95;;
41799;SDS011;27468;47.460;19.034;2022-08-19T12:05:43;11.75;;;10.32;;
41799;SDS011;27468;47.460;19.034;2022-08-19T12:08:09;12.60;;;10.38;;
41799;SDS011;27468;47.460;19.034;2022-08-19T12:10:34;11.48;;;10.18;;
41799;SDS011;27468;47.460;19.034;2022-08-19T12:13:00;11.20;;;10.10;;
41799;SDS011;27468;47.460;19.034;2022-08-19T12:15:26;11.18;;;9.90;;
41799;SDS011;27468;47.460;19.034;2022-08-19T12:17:56;12.40;;;9.50;;
41799;SDS011;27468;47.460;19.034;2022-08-19T12:20:22;12.35;;;9.77;;
41799;SDS011;27468;47.460;19.034;2022-08-19T12:22:49;11.38;;;9.43;;
41799;SDS011;27468;47.460;19.034;2022-08-19T12:25:15;11.07;;;9.20;;
41799;SDS011;27468;47.460;19.034;2022-08-19T12:27:41;12.50;;;9.13;;
41799;SDS011;27468;47.460;19.034;2022-08-19T12:30:08;9.73;;;8.73;;
41799;SDS011;27468;47.460;19.034;2022-08-19T12:32:35;11.00;;;9.85;;
41799;SDS011;27468;47.460;19.034;2022-08-19T12:35:01;11.63;;;9.68;;
41799;SDS011;27468;47.460;19.034;2022-08-19T12:37:27;11.35;;;9.77;;
41799;SDS011;27468;47.460;19.034;2022-08-19T12:39:52;13.77;;;10.32;;
41799;SDS011;27468;47.460;19.034;2022-08-19T12:42:18;12.93;;;10.95;;
41799;SDS011;27468;47.460;19.034;2022-08-19T12:44:43;14.40;;;12.90;;
41799;SDS011;27468;47.460;19.034;2022-08-19T12:47:10;13.70;;;12.38;;
41799;SDS011;27468;47.460;19.034;2022-08-19T12:49:38;12.98;;;11.82;;
41799;SDS011;27468;47.460;19.034;2022-08-19T12:52:06;14.23;;;12.88;;
41799;SDS011;27468;47.460;19.034;2022-08-19T12:54:33;14.18;;;12.80;;
41799;SDS011;27468;47.460;19.034;2022-08-19T12:57:00;15.80;;;14.32;;
41799;SDS011;27468;47.460;19.034;2022-08-19T12:59:29;15.50;;;14.00;;
41799;SDS011;27468;47.460;19.034;2022-08-19T13:01:54;19.30;;;14.23;;
41799;SDS011;27468;47.460;19.034;2022-08-19T13:04:20;16.02;;;14.45;;
41799;SDS011;27468;47.460;19.034;2022-08-19T13:06:45;15.00;;;13.50;;
41799;SDS011;27468;47.460;19.034;2022-08-19T13:09:11;14.77;;;13.18;;
41799;SDS011;27468;47.460;19.034;2022-08-19T13:11:37;13.77;;;12.55;;
41799;SDS011;27468;47.460;19.034;2022-08-19T13:14:03;14.85;;;11.32;;
41799;SDS011;27468;47.460;19.034;2022-08-19T13:16:29;13.48;;;8.25;;
41799;SDS011;27468;47.460;19.034;2022-08-19T13:18:55;10.32;;;6.82;;
41799;SDS011;27468;47.460;19.034;2022-08-19T13:21:22;8.30;;;5.53;;
41799;SDS011;27468;47.460;19.034;2022-08-19T13:23:51;9.48;;;5.80;;
41799;SDS011;27468;47.460;19.034;2022-08-19T13:26:17;8.73;;;5.78;;
41799;SDS011;27468;47.460;19.034;2022-08-19T13:28:43;7.57;;;6.60;;
41799;SDS011;27468;47.460;19.034;2022-08-19T13:31:29;6.78;;;5.32;;
41799;SDS011;27468;47.460;19.034;2022-08-19T13:34:14;9.05;;;5.25;;
41799;SDS011;27468;47.460;19.034;2022-08-19T13:36:41;7.53;;;5.43;;
41799;SDS011;27468;47.460;19.034;2022-08-19T13:39:07;6.60;;;5.38;;
41799;SDS011;27468;47.460;19.034;2022-08-19T13:41:33;6.68;;;5.20;;
41799;SDS011;27468;47.460;19.034;2022-08-19T13:43:59;9.65;;;6.07;;
41799;SDS011;27468;47.460;19.034;2022-08-19T13:46:25;10.35;;;5.68;;
41799;SDS011;27468;47.460;19.034;2022-08-19T13:48:52;8.77;;;5.60;;
41799;SDS011;27468;47.460;19.034;2022-08-19T13:51:17;8.13;;;5.32;;
41799;SDS011;27468;47.460;19.034;2022-08-19T13:53:43;8.75;;;5.57;;
41799;SDS011;27468;47.460;19.034;2022-08-19T13:56:10;17.15;;;5.22;;
41799;SDS011;27468;47.460;19.034;2022-08-19T13:58:37;16.73;;;5.65;;
41799;SDS011;27468;47.460;19.034;2022-08-19T14:01:03;28.15;;;6.85;;
41799;SDS011;27468;47.460;19.034;2022-08-19T14:03:30;15.68;;;5.20;;
41799;SDS011;27468;47.460;19.034;2022-08-19T14:05:57;13.10;;;4.70;;
41799;SDS011;27468;47.460;19.034;2022-08-19T14:08:23;13.07;;;4.65;;
41799;SDS011;27468;47.460;19.034;2022-08-19T14:10:56;14.10;;;4.90;;
41799;SDS011;27468;47.460;19.034;2022-08-19T14:13:22;14.27;;;5.35;;
41799;SDS011;27468;47.460;19.034;2022-08-19T14:15:48;12.77;;;5.00;;
41799;SDS011;27468;47.460;19.034;2022-08-19T14:18:15;8.60;;;4.80;;
41799;SDS011;27468;47.460;19.034;2022-08-19T14:20:42;12.57;;;5.15;;
41799;SDS011;27468;47.460;19.034;2022-08-19T14:23:08;11.13;;;4.60;;
41799;SDS011;27468;47.460;19.034;2022-08-19T14:25:34;11.27;;;4.53;;
41799;SDS011;27468;47.460;19.034;2022-08-19T14:28:00;13.63;;;4.82;;
41799;SDS011;27468;47.460;19.034;2022-08-19T14:30:30;7.38;;;4.65;;
41799;SDS011;27468;47.460;19.034;2022-08-19T14:32:58;12.43;;;4.45;;
41799;SDS011;27468;47.460;19.034;2022-08-19T14:35:26;12.35;;;4.68;;
41799;SDS011;27468;47.460;19.034;2022-08-19T14:37:53;6.97;;;4.20;;
41799;SDS011;27468;47.460;19.034;2022-08-19T14:40:21;8.98;;;3.90;;
41799;SDS011;27468;47.460;19.034;2022-08-19T14:42:55;7.65;;;3.72;;
41799;SDS011;27468;47.460;19.034;2022-08-19T14:45:24;11.85;;;4.00;;
41799;SDS011;27468;47.460;19.034;2022-08-19T14:47:51;10.57;;;3.40;;
41799;SDS011;27468;47.460;19.034;2022-08-19T14:50:17;7.95;;;3.10;;
41799;SDS011;27468;47.460;19.034;2022-08-19T14:52:47;10.70;;;3.55;;
41799;SDS011;27468;47.460;19.034;2022-08-19T14:55:14;9.32;;;2.83;;